sensor_id;sensor_type;location;lat;lon;timestamp;P1;durP1;ratioP1;P2;durP2;ratioP2
29238;SDS011;16267;48.194;11.546;2024-02-04T00:02:23;3.90;;;2.22;;
29238;SDS011;16267;48.194;11.546;2024-02-04T00:04:50;4.35;;;2.35;;
29238;SDS011;16267;48.194;11.546;2024-02-04T00:07:16;5.40;;;2.30;;
29238;SDS011;16267;48.194;11.546;2024-02-04T00:09:42;4.55;;;2.65;;
29238;SDS011;16267;48.194;11.546;2024-02-04T00:12:09;3.72;;;1.67;;
29238;SDS011;16267;48.194;11.546;2024-02-04T00:14:35;3.95;;;1.95;;
29238;SDS011;16267;48.194;11.546;2024-02-04T00:17:01;4.30;;;2.63;;
29238;SDS011;16267;48.194;11.546;2024-02-04T00:19:27;2.42;;;1.50;;
29238;SDS011;16267;48.194;11.546;2024-02-04T00:21:52;2.75;;;1.73;;
29238;SDS011;16267;48.194;11.546;2024-02-04T00:24:18;5.15;;;1.52;;
29238;SDS011;16267;48.194;11.546;2024-02-04T00:26:44;3.38;;;1.67;;
29238;SDS011;16267;48.194;11.546;2024-02-04T00:29:10;3.03;;;1.63;;
29238;SDS011;16267;48.194;11.546;2024-02-04T00:31:36;4.68;;;1.65;;
29238;SDS011;16267;48.194;11.546;2024-02-04T00:34:02;3.42;;;2.10;;
29238;SDS011;16267;48.194;11.546;2024-02-04T00:36:28;2.60;;;1.65;;
29238;SDS011;16267;48.194;11.546;2024-02-04T00:38:53;7.20;;;2.10;;
29238;SDS011;16267;48.194;11.546;2024-02-04T00:41:19;3.25;;;1.85;;
29238;SDS011;16267;48.194;11.546;2024-02-04T00:43:45;3.65;;;1.88;;
29238;SDS011;16267;48.194;11.546;2024-02-04T00:46:11;3.55;;;2.10;;
29238;SDS011;16267;48.194;11.546;2024-02-04T00:48:36;5.05;;;2.10;;
29238;SDS011;16267;48.194;11.546;2024-02-04T00:51:02;4.85;;;2.13;;
29238;SDS011;16267;48.194;11.546;2024-02-04T00:53:28;3.58;;;1.50;;
29238;SDS011;16267;48.194;11.546;2024-02-04T00:56:07;2.80;;;1.83;;
29238;SDS011;16267;48.194;11.546;2024-02-04T00:58:34;2.72;;;1.65;;
29238;SDS011;16267;48.194;11.546;2024-02-04T01:01:00;2.10;;;1.40;;
29238;SDS011;16267;48.194;11.546;2024-02-04T01:03:26;2.65;;;1.67;;
29238;SDS011;16267;48.194;11.546;2024-02-04T01:05:53;2.80;;;1.58;;
29238;SDS011;16267;48.194;11.546;2024-02-04T01:08:20;3.50;;;1.73;;
29238;SDS011;16267;48.194;11.546;2024-02-04T01:10:46;2.75;;;1.80;;
29238;SDS011;16267;48.194;11.546;2024-02-04T01:13:12;2.53;;;1.25;;
29238;SDS011;16267;48.194;11.546;2024-02-04T01:15:39;2.40;;;1.48;;
29238;SDS011;16267;48.194;11.546;2024-02-04T01:18:05;2.85;;;1.88;;
29238;SDS011;16267;48.194;11.546;2024-02-04T01:20:30;3.03;;;2.42;;
29238;SDS011;16267;48.194;11.546;2024-02-04T01:22:56;2.58;;;1.63;;
29238;SDS011;16267;48.194;11.546;2024-02-04T01:25:22;2.85;;;2.08;;
29238;SDS011;16267;48.194;11.546;2024-02-04T01:27:47;4.05;;;2.20;;
29238;SDS011;16267;48.194;11.546;2024-02-04T01:30:13;3.25;;;1.85;;
29238;SDS011;16267;48.194;11.546;2024-02-04T01:32:39;5.22;;;2.88;;
29238;SDS011;16267;48.194;11.546;2024-02-04T01:35:05;2.35;;;1.58;;
29238;SDS011;16267;48.194;11.546;2024-02-04T01:37:32;3.58;;;1.95;;
29238;SDS011;16267;48.194;11.546;2024-02-04T01:39:57;4.63;;;2.45;;
29238;SDS011;16267;48.194;11.546;2024-02-04T01:42:23;3.55;;;1.90;;
29238;SDS011;16267;48.194;11.546;2024-02-04T01:44:49;4.63;;;2.65;;
29238;SDS011;16267;48.194;11.546;2024-02-04T01:47:15;5.25;;;2.75;;
29238;SDS011;16267;48.194;11.546;2024-02-04T01:49:40;3.95;;;2.08;;
29238;SDS011;16267;48.194;11.546;2024-02-04T01:52:08;3.33;;;2.17;;
29238;SDS011;16267;48.194;11.546;2024-02-04T01:54:36;4.38;;;2.65;;
29238;SDS011;16267;48.194;11.546;2024-02-04T01:57:04;3.42;;;1.80;;
29238;SDS011;16267;48.194;11.546;2024-02-04T01:59:32;6.07;;;2.78;;
29238;SDS011;16267;48.194;11.546;2024-02-04T02:01:59;4.28;;;2.60;;
29238;SDS011;16267;48.194;11.546;2024-02-04T02:04:26;3.05;;;2.03;;
29238;SDS011;16267;48.194;11.546;2024-02-04T02:06:55;4.57;;;2.13;;
29238;SDS011;16267;48.194;11.546;2024-02-04T02:09:21;2.80;;;1.60;;
29238;SDS011;16267;48.194;11.546;2024-02-04T02:11:47;3.60;;;2.08;;
29238;SDS011;16267;48.194;11.546;2024-02-04T02:14:39;3.42;;;1.90;;
29238;SDS011;16267;48.194;11.546;2024-02-04T02:17:13;2.65;;;1.63;;
29238;SDS011;16267;48.194;11.546;2024-02-04T02:19:57;3.28;;;1.60;;
29238;SDS011;16267;48.194;11.546;2024-02-04T02:25:19;1.75;;;1.60;;
29238;SDS011;16267;48.194;11.546;2024-02-04T02:27:50;3.60;;;1.65;;
29238;SDS011;16267;48.194;11.546;2024-02-04T02:30:16;2.85;;;1.40;;
29238;SDS011;16267;48.194;11.546;2024-02-04T02:32:46;2.35;;;1.30;;
29238;SDS011;16267;48.194;11.546;2024-02-04T02:35:14;3.45;;;2.22;;
29238;SDS011;16267;48.194;11.546;2024-02-04T02:40:37;2.00;;;1.40;;
29238;SDS011;16267;48.194;11.546;2024-02-04T02:43:06;1.70;;;1.10;;
29238;SDS011;16267;48.194;11.546;2024-02-04T02:45:36;1.95;;;1.33;;
29238;SDS011;16267;48.194;11.546;2024-02-04T02:48:05;2.38;;;1.38;;
29238;SDS011;16267;48.194;11.546;2024-02-04T02:50:33;2.78;;;1.40;;
29238;SDS011;16267;48.194;11.546;2024-02-04T02:53:00;2.38;;;1.50;;
29238;SDS011;16267;48.194;11.546;2024-02-04T02:55:26;2.58;;;1.27;;
29238;SDS011;16267;48.194;11.546;2024-02-04T02:57:52;2.67;;;1.60;;
29238;SDS011;16267;48.194;11.546;2024-02-04T03:00:18;2.38;;;1.45;;
29238;SDS011;16267;48.194;11.546;2024-02-04T03:02:44;2.15;;;1.40;;
29238;SDS011;16267;48.194;11.546;2024-02-04T03:05:09;2.17;;;1.30;;
29238;SDS011;16267;48.194;11.546;2024-02-04T03:07:36;4.40;;;1.42;;
29238;SDS011;16267;48.194;11.546;2024-02-04T03:10:02;4.70;;;1.65;;
29238;SDS011;16267;48.194;11.546;2024-02-04T03:12:29;1.35;;;1.10;;
29238;SDS011;16267;48.194;11.546;2024-02-04T03:14:54;2.80;;;1.40;;
29238;SDS011;16267;48.194;11.546;2024-02-04T03:17:20;4.47;;;1.63;;
29238;SDS011;16267;48.194;11.546;2024-02-04T03:19:47;3.08;;;1.42;;
29238;SDS011;16267;48.194;11.546;2024-02-04T03:22:14;2.53;;;1.10;;
29238;SDS011;16267;48.194;11.546;2024-02-04T03:24:40;2.03;;;1.23;;
29238;SDS011;16267;48.194;11.546;2024-02-04T03:27:06;2.97;;;1.73;;
29238;SDS011;16267;48.194;11.546;2024-02-04T03:29:32;3.78;;;1.42;;
29238;SDS011;16267;48.194;11.546;2024-02-04T03:31:58;2.20;;;1.25;;
29238;SDS011;16267;48.194;11.546;2024-02-04T03:34:24;1.67;;;1.27;;
29238;SDS011;16267;48.194;11.546;2024-02-04T03:36:50;3.00;;;1.48;;
29238;SDS011;16267;48.194;11.546;2024-02-04T03:39:15;2.03;;;1.23;;
29238;SDS011;16267;48.194;11.546;2024-02-04T03:41:41;2.47;;;1.40;;
29238;SDS011;16267;48.194;11.546;2024-02-04T03:44:07;2.63;;;1.50;;
29238;SDS011;16267;48.194;11.546;2024-02-04T03:46:33;2.72;;;1.25;;
29238;SDS011;16267;48.194;11.546;2024-02-04T03:48:58;3.08;;;1.33;;
29238;SDS011;16267;48.194;11.546;2024-02-04T03:51:24;4.55;;;1.95;;
29238;SDS011;16267;48.194;11.546;2024-02-04T03:53:50;3.25;;;1.50;;
29238;SDS011;16267;48.194;11.546;2024-02-04T03:56:16;3.83;;;1.85;;
29238;SDS011;16267;48.194;11.546;2024-02-04T03:58:42;2.75;;;1.55;;
29238;SDS011;16267;48.194;11.546;2024-02-04T04:01:12;3.47;;;1.30;;
29238;SDS011;16267;48.194;11.546;2024-02-04T04:03:44;3.08;;;1.75;;
29238;SDS011;16267;48.194;11.546;2024-02-04T04:06:10;3.50;;;1.60;;
29238;SDS011;16267;48.194;11.546;2024-02-04T04:08:36;3.97;;;2.00;;
29238;SDS011;16267;48.194;11.546;2024-02-04T04:11:02;3.53;;;1.58;;
29238;SDS011;16267;48.194;11.546;2024-02-04T04:13:29;2.50;;;1.42;;
29238;SDS011;16267;48.194;11.546;2024-02-04T04:15:55;2.75;;;1.33;;
29238;SDS011;16267;48.194;11.546;2024-02-04T04:18:20;5.40;;;1.58;;
29238;SDS011;16267;48.194;11.546;2024-02-04T04:20:48;2.83;;;1.48;;
29238;SDS011;16267;48.194;11.546;2024-02-04T04:23:14;3.50;;;1.35;;
29238;SDS011;16267;48.194;11.546;2024-02-04T04:25:40;2.05;;;1.20;;
29238;SDS011;16267;48.194;11.546;2024-02-04T04:28:05;3.00;;;1.30;;
29238;SDS011;16267;48.194;11.546;2024-02-04T04:30:31;2.50;;;0.93;;
29238;SDS011;16267;48.194;11.546;2024-02-04T04:32:57;1.92;;;1.42;;
29238;SDS011;16267;48.194;11.546;2024-02-04T04:35:24;2.13;;;1.15;;
29238;SDS011;16267;48.194;11.546;2024-02-04T04:37:50;2.22;;;1.45;;
29238;SDS011;16267;48.194;11.546;2024-02-04T04:40:16;1.75;;;1.23;;
29238;SDS011;16267;48.194;11.546;2024-02-04T04:42:41;2.85;;;1.48;;
29238;SDS011;16267;48.194;11.546;2024-02-04T04:45:07;3.13;;;1.58;;
29238;SDS011;16267;48.194;11.546;2024-02-04T04:47:34;2.08;;;1.17;;
29238;SDS011;16267;48.194;11.546;2024-02-04T04:49:59;2.80;;;1.40;;
29238;SDS011;16267;48.194;11.546;2024-02-04T04:52:25;2.10;;;1.20;;
29238;SDS011;16267;48.194;11.546;2024-02-04T04:54:51;1.98;;;1.27;;
29238;SDS011;16267;48.194;11.546;2024-02-04T04:57:16;2.28;;;1.20;;
29238;SDS011;16267;48.194;11.546;2024-02-04T04:59:42;2.20;;;1.30;;
29238;SDS011;16267;48.194;11.546;2024-02-04T05:02:08;3.13;;;1.52;;
29238;SDS011;16267;48.194;11.546;2024-02-04T05:04:35;2.53;;;1.08;;
29238;SDS011;16267;48.194;11.546;2024-02-04T05:07:01;3.53;;;1.60;;
29238;SDS011;16267;48.194;11.546;2024-02-04T05:09:27;3.60;;;1.23;;
29238;SDS011;16267;48.194;11.546;2024-02-04T05:11:53;1.80;;;1.00;;
29238;SDS011;16267;48.194;11.546;2024-02-04T05:14:18;2.20;;;1.40;;
29238;SDS011;16267;48.194;11.546;2024-02-04T05:16:45;1.35;;;0.98;;
29238;SDS011;16267;48.194;11.546;2024-02-04T05:19:11;2.22;;;1.15;;
29238;SDS011;16267;48.194;11.546;2024-02-04T05:21:39;1.45;;;0.90;;
29238;SDS011;16267;48.194;11.546;2024-02-04T05:24:07;1.35;;;1.00;;
29238;SDS011;16267;48.194;11.546;2024-02-04T05:26:33;1.65;;;1.13;;
29238;SDS011;16267;48.194;11.546;2024-02-04T05:28:59;1.77;;;1.13;;
29238;SDS011;16267;48.194;11.546;2024-02-04T05:31:24;1.75;;;1.00;;
29238;SDS011;16267;48.194;11.546;2024-02-04T05:33:51;1.63;;;0.80;;
29238;SDS011;16267;48.194;11.546;2024-02-04T05:36:18;1.90;;;0.93;;
29238;SDS011;16267;48.194;11.546;2024-02-04T05:38:44;1.17;;;0.80;;
29238;SDS011;16267;48.194;11.546;2024-02-04T05:41:10;1.45;;;0.90;;
29238;SDS011;16267;48.194;11.546;2024-02-04T05:43:36;4.45;;;1.05;;
29238;SDS011;16267;48.194;11.546;2024-02-04T05:46:02;2.33;;;0.90;;
29238;SDS011;16267;48.194;11.546;2024-02-04T05:48:28;1.98;;;0.93;;
29238;SDS011;16267;48.194;11.546;2024-02-04T05:50:53;1.45;;;0.88;;
29238;SDS011;16267;48.194;11.546;2024-02-04T05:53:19;2.15;;;1.20;;
29238;SDS011;16267;48.194;11.546;2024-02-04T05:55:46;1.25;;;0.90;;
29238;SDS011;16267;48.194;11.546;2024-02-04T05:58:11;1.48;;;1.00;;
29238;SDS011;16267;48.194;11.546;2024-02-04T06:00:39;3.03;;;1.00;;
29238;SDS011;16267;48.194;11.546;2024-02-04T06:03:05;1.48;;;1.08;;
29238;SDS011;16267;48.194;11.546;2024-02-04T06:05:31;3.92;;;1.20;;
29238;SDS011;16267;48.194;11.546;2024-02-04T06:07:57;2.10;;;1.10;;
29238;SDS011;16267;48.194;11.546;2024-02-04T06:10:23;3.33;;;1.38;;
29238;SDS011;16267;48.194;11.546;2024-02-04T06:12:49;2.33;;;1.15;;
29238;SDS011;16267;48.194;11.546;2024-02-04T06:15:15;4.38;;;1.40;;
29238;SDS011;16267;48.194;11.546;2024-02-04T06:17:41;4.32;;;1.40;;
29238;SDS011;16267;48.194;11.546;2024-02-04T06:20:08;1.98;;;1.10;;
29238;SDS011;16267;48.194;11.546;2024-02-04T06:22:34;1.83;;;1.17;;
29238;SDS011;16267;48.194;11.546;2024-02-04T06:25:00;1.90;;;1.30;;
29238;SDS011;16267;48.194;11.546;2024-02-04T06:27:28;2.70;;;1.30;;
29238;SDS011;16267;48.194;11.546;2024-02-04T06:29:55;2.30;;;1.10;;
29238;SDS011;16267;48.194;11.546;2024-02-04T06:32:21;5.85;;;1.52;;
29238;SDS011;16267;48.194;11.546;2024-02-04T06:34:47;1.60;;;0.90;;
29238;SDS011;16267;48.194;11.546;2024-02-04T06:37:12;3.17;;;1.17;;
29238;SDS011;16267;48.194;11.546;2024-02-04T06:39:38;1.80;;;1.20;;
29238;SDS011;16267;48.194;11.546;2024-02-04T06:42:04;2.25;;;1.10;;
29238;SDS011;16267;48.194;11.546;2024-02-04T06:44:30;3.83;;;1.60;;
29238;SDS011;16267;48.194;11.546;2024-02-04T06:46:56;1.83;;;1.17;;
29238;SDS011;16267;48.194;11.546;2024-02-04T06:49:22;4.25;;;1.40;;
29238;SDS011;16267;48.194;11.546;2024-02-04T06:51:47;3.17;;;1.42;;
29238;SDS011;16267;48.194;11.546;2024-02-04T06:54:13;3.17;;;1.20;;
29238;SDS011;16267;48.194;11.546;2024-02-04T06:56:40;3.72;;;1.65;;
29238;SDS011;16267;48.194;11.546;2024-02-04T06:59:05;4.32;;;2.08;;
29238;SDS011;16267;48.194;11.546;2024-02-04T07:01:34;5.65;;;1.70;;
29238;SDS011;16267;48.194;11.546;2024-02-04T07:04:00;2.97;;;1.80;;
29238;SDS011;16267;48.194;11.546;2024-02-04T07:06:26;2.50;;;1.63;;
29238;SDS011;16267;48.194;11.546;2024-02-04T07:08:51;4.72;;;1.63;;
29238;SDS011;16267;48.194;11.546;2024-02-04T07:11:17;4.70;;;1.90;;
29238;SDS011;16267;48.194;11.546;2024-02-04T07:13:44;3.80;;;1.80;;
29238;SDS011;16267;48.194;11.546;2024-02-04T07:16:10;3.15;;;2.00;;
29238;SDS011;16267;48.194;11.546;2024-02-04T07:18:35;3.00;;;1.65;;
29238;SDS011;16267;48.194;11.546;2024-02-04T07:21:01;2.72;;;1.52;;
29238;SDS011;16267;48.194;11.546;2024-02-04T07:23:27;4.72;;;1.83;;
29238;SDS011;16267;48.194;11.546;2024-02-04T07:25:53;4.78;;;1.80;;
29238;SDS011;16267;48.194;11.546;2024-02-04T07:28:18;3.47;;;2.03;;
29238;SDS011;16267;48.194;11.546;2024-02-04T07:30:44;2.90;;;1.95;;
29238;SDS011;16267;48.194;11.546;2024-02-04T07:33:10;6.47;;;2.08;;
29238;SDS011;16267;48.194;11.546;2024-02-04T07:35:36;2.45;;;1.40;;
29238;SDS011;16267;48.194;11.546;2024-02-04T07:38:02;6.10;;;2.22;;
29238;SDS011;16267;48.194;11.546;2024-02-04T07:40:28;4.93;;;1.85;;
29238;SDS011;16267;48.194;11.546;2024-02-04T07:42:55;5.47;;;2.03;;
29238;SDS011;16267;48.194;11.546;2024-02-04T07:45:21;2.90;;;1.52;;
29238;SDS011;16267;48.194;11.546;2024-02-04T07:47:46;2.95;;;1.58;;
29238;SDS011;16267;48.194;11.546;2024-02-04T07:50:12;2.05;;;1.20;;
29238;SDS011;16267;48.194;11.546;2024-02-04T07:52:38;2.95;;;1.73;;
29238;SDS011;16267;48.194;11.546;2024-02-04T07:55:03;3.17;;;1.73;;
29238;SDS011;16267;48.194;11.546;2024-02-04T07:57:29;3.33;;;1.60;;
29238;SDS011;16267;48.194;11.546;2024-02-04T07:59:55;5.75;;;2.10;;
29238;SDS011;16267;48.194;11.546;2024-02-04T08:02:21;2.25;;;1.55;;
29238;SDS011;16267;48.194;11.546;2024-02-04T08:04:47;2.42;;;1.35;;
29238;SDS011;16267;48.194;11.546;2024-02-04T08:07:12;2.15;;;1.27;;
29238;SDS011;16267;48.194;11.546;2024-02-04T08:09:38;6.00;;;1.60;;
29238;SDS011;16267;48.194;11.546;2024-02-04T08:12:04;2.97;;;1.85;;
29238;SDS011;16267;48.194;11.546;2024-02-04T08:14:30;2.95;;;1.40;;
29238;SDS011;16267;48.194;11.546;2024-02-04T08:16:56;4.72;;;1.40;;
29238;SDS011;16267;48.194;11.546;2024-02-04T08:19:21;5.43;;;1.38;;
29238;SDS011;16267;48.194;11.546;2024-02-04T08:21:47;3.70;;;1.70;;
29238;SDS011;16267;48.194;11.546;2024-02-04T08:24:13;3.65;;;1.35;;
29238;SDS011;16267;48.194;11.546;2024-02-04T08:26:39;4.90;;;1.83;;
29238;SDS011;16267;48.194;11.546;2024-02-04T08:29:04;5.60;;;1.42;;
29238;SDS011;16267;48.194;11.546;2024-02-04T08:31:31;2.80;;;1.45;;
29238;SDS011;16267;48.194;11.546;2024-02-04T08:33:58;3.88;;;1.25;;
29238;SDS011;16267;48.194;11.546;2024-02-04T08:36:24;4.55;;;1.75;;
29238;SDS011;16267;48.194;11.546;2024-02-04T08:38:50;6.70;;;1.20;;
29238;SDS011;16267;48.194;11.546;2024-02-04T08:41:16;7.85;;;1.30;;
29238;SDS011;16267;48.194;11.546;2024-02-04T08:43:41;2.90;;;1.17;;
29238;SDS011;16267;48.194;11.546;2024-02-04T08:46:07;15.82;;;1.67;;
29238;SDS011;16267;48.194;11.546;2024-02-04T08:48:35;2.78;;;1.17;;
29238;SDS011;16267;48.194;11.546;2024-02-04T08:51:12;4.05;;;1.30;;
29238;SDS011;16267;48.194;11.546;2024-02-04T08:53:41;7.20;;;1.45;;
29238;SDS011;16267;48.194;11.546;2024-02-04T08:56:07;2.60;;;1.35;;
29238;SDS011;16267;48.194;11.546;2024-02-04T08:58:36;2.15;;;0.93;;
29238;SDS011;16267;48.194;11.546;2024-02-04T09:01:02;2.58;;;1.00;;
29238;SDS011;16267;48.194;11.546;2024-02-04T09:03:31;2.10;;;1.00;;
29238;SDS011;16267;48.194;11.546;2024-02-04T09:05:58;3.25;;;1.20;;
29238;SDS011;16267;48.194;11.546;2024-02-04T09:08:27;6.93;;;1.10;;
29238;SDS011;16267;48.194;11.546;2024-02-04T09:10:53;6.15;;;1.23;;
29238;SDS011;16267;48.194;11.546;2024-02-04T09:13:19;3.35;;;1.52;;
29238;SDS011;16267;48.194;11.546;2024-02-04T09:15:45;2.05;;;1.20;;
29238;SDS011;16267;48.194;11.546;2024-02-04T09:18:10;5.90;;;1.10;;
29238;SDS011;16267;48.194;11.546;2024-02-04T09:20:36;5.18;;;2.22;;
29238;SDS011;16267;48.194;11.546;2024-02-04T09:23:04;1.75;;;1.10;;
29238;SDS011;16267;48.194;11.546;2024-02-04T09:25:30;2.72;;;0.93;;
29238;SDS011;16267;48.194;11.546;2024-02-04T09:27:56;2.63;;;0.90;;
29238;SDS011;16267;48.194;11.546;2024-02-04T09:30:22;2.25;;;0.93;;
29238;SDS011;16267;48.194;11.546;2024-02-04T09:32:48;2.63;;;1.25;;
29238;SDS011;16267;48.194;11.546;2024-02-04T09:35:14;4.43;;;1.48;;
29238;SDS011;16267;48.194;11.546;2024-02-04T09:37:40;1.70;;;1.08;;
29238;SDS011;16267;48.194;11.546;2024-02-04T09:40:10;1.95;;;1.00;;
29238;SDS011;16267;48.194;11.546;2024-02-04T09:42:37;4.65;;;1.75;;
29238;SDS011;16267;48.194;11.546;2024-02-04T09:45:06;1.65;;;0.95;;
29238;SDS011;16267;48.194;11.546;2024-02-04T09:47:34;4.32;;;1.50;;
29238;SDS011;16267;48.194;11.546;2024-02-04T09:50:04;2.42;;;1.27;;
29238;SDS011;16267;48.194;11.546;2024-02-04T09:52:51;2.45;;;1.20;;
29238;SDS011;16267;48.194;11.546;2024-02-04T09:55:26;2.50;;;1.05;;
29238;SDS011;16267;48.194;11.546;2024-02-04T09:57:59;2.30;;;1.17;;
29238;SDS011;16267;48.194;11.546;2024-02-04T10:00:26;4.45;;;1.50;;
29238;SDS011;16267;48.194;11.546;2024-02-04T10:02:54;2.63;;;1.42;;
29238;SDS011;16267;48.194;11.546;2024-02-04T10:05:27;5.40;;;1.50;;
29238;SDS011;16267;48.194;11.546;2024-02-04T10:07:56;4.50;;;1.33;;
29238;SDS011;16267;48.194;11.546;2024-02-04T10:10:22;5.40;;;1.55;;
29238;SDS011;16267;48.194;11.546;2024-02-04T10:12:52;4.10;;;1.25;;
29238;SDS011;16267;48.194;11.546;2024-02-04T10:15:39;2.17;;;1.27;;
29238;SDS011;16267;48.194;11.546;2024-02-04T10:18:06;11.48;;;1.70;;
29238;SDS011;16267;48.194;11.546;2024-02-04T10:20:33;5.50;;;1.30;;
29238;SDS011;16267;48.194;11.546;2024-02-04T10:22:59;2.22;;;1.42;;
29238;SDS011;16267;48.194;11.546;2024-02-04T10:25:25;4.82;;;1.60;;
29238;SDS011;16267;48.194;11.546;2024-02-04T10:27:52;1.73;;;1.20;;
29238;SDS011;16267;48.194;11.546;2024-02-04T10:30:19;2.58;;;1.38;;
29238;SDS011;16267;48.194;11.546;2024-02-04T10:32:46;6.50;;;1.60;;
29238;SDS011;16267;48.194;11.546;2024-02-04T10:35:21;1.55;;;1.15;;
29238;SDS011;16267;48.194;11.546;2024-02-04T10:37:51;2.40;;;1.20;;
29238;SDS011;16267;48.194;11.546;2024-02-04T10:40:18;1.95;;;1.02;;
29238;SDS011;16267;48.194;11.546;2024-02-04T10:42:44;6.93;;;1.30;;
29238;SDS011;16267;48.194;11.546;2024-02-04T10:45:11;4.60;;;1.95;;
29238;SDS011;16267;48.194;11.546;2024-02-04T10:47:39;2.08;;;1.17;;
29238;SDS011;16267;48.194;11.546;2024-02-04T10:50:05;2.88;;;1.50;;
29238;SDS011;16267;48.194;11.546;2024-02-04T10:52:36;1.65;;;1.00;;
29238;SDS011;16267;48.194;11.546;2024-02-04T10:55:07;3.58;;;1.13;;
29238;SDS011;16267;48.194;11.546;2024-02-04T10:57:39;3.17;;;1.40;;
29238;SDS011;16267;48.194;11.546;2024-02-04T11:00:06;2.92;;;1.55;;
29238;SDS011;16267;48.194;11.546;2024-02-04T11:02:37;4.47;;;1.13;;
29238;SDS011;16267;48.194;11.546;2024-02-04T11:05:12;3.38;;;0.95;;
29238;SDS011;16267;48.194;11.546;2024-02-04T11:07:43;2.22;;;1.40;;
29238;SDS011;16267;48.194;11.546;2024-02-04T11:10:10;3.55;;;1.30;;
29238;SDS011;16267;48.194;11.546;2024-02-04T11:12:36;3.50;;;1.13;;
29238;SDS011;16267;48.194;11.546;2024-02-04T11:15:07;6.13;;;0.77;;
29238;SDS011;16267;48.194;11.546;2024-02-04T11:28:55;0.95;;;0.60;;
29238;SDS011;16267;48.194;11.546;2024-02-04T11:31:21;2.95;;;1.00;;
29238;SDS011;16267;48.194;11.546;2024-02-04T11:33:50;7.05;;;1.27;;
29238;SDS011;16267;48.194;11.546;2024-02-04T11:36:16;1.67;;;0.88;;
29238;SDS011;16267;48.194;11.546;2024-02-04T11:38:43;3.92;;;0.93;;
29238;SDS011;16267;48.194;11.546;2024-02-04T11:41:20;3.53;;;0.77;;
29238;SDS011;16267;48.194;11.546;2024-02-04T11:43:52;0.75;;;0.60;;
29238;SDS011;16267;48.194;11.546;2024-02-04T11:46:19;0.75;;;0.70;;
29238;SDS011;16267;48.194;11.546;2024-02-04T11:48:57;0.93;;;0.80;;
29238;SDS011;16267;48.194;11.546;2024-02-04T11:51:25;1.98;;;0.55;;
29238;SDS011;16267;48.194;11.546;2024-02-04T11:53:51;0.55;;;0.50;;
29238;SDS011;16267;48.194;11.546;2024-02-04T11:56:21;2.20;;;0.70;;
29238;SDS011;16267;48.194;11.546;2024-02-04T11:58:58;1.20;;;0.60;;
29238;SDS011;16267;48.194;11.546;2024-02-04T12:01:24;1.33;;;1.02;;
29238;SDS011;16267;48.194;11.546;2024-02-04T12:03:50;1.00;;;0.50;;
29238;SDS011;16267;48.194;11.546;2024-02-04T12:06:17;5.53;;;0.90;;
29238;SDS011;16267;48.194;11.546;2024-02-04T12:08:47;1.33;;;0.65;;
29238;SDS011;16267;48.194;11.546;2024-02-04T12:11:13;1.33;;;0.52;;
29238;SDS011;16267;48.194;11.546;2024-02-04T12:13:40;3.00;;;1.35;;
29238;SDS011;16267;48.194;11.546;2024-02-04T12:16:10;2.92;;;0.85;;
29238;SDS011;16267;48.194;11.546;2024-02-04T12:18:47;4.75;;;1.30;;
29238;SDS011;16267;48.194;11.546;2024-02-04T12:21:14;2.15;;;0.63;;
29238;SDS011;16267;48.194;11.546;2024-02-04T12:23:40;3.25;;;0.77;;
29238;SDS011;16267;48.194;11.546;2024-02-04T12:26:05;0.93;;;0.50;;
29238;SDS011;16267;48.194;11.546;2024-02-04T12:28:43;1.45;;;0.90;;
29238;SDS011;16267;48.194;11.546;2024-02-04T12:31:42;6.82;;;0.50;;
29238;SDS011;16267;48.194;11.546;2024-02-04T12:34:01;0.88;;;0.60;;
29238;SDS011;16267;48.194;11.546;2024-02-04T12:36:30;1.08;;;0.45;;
29238;SDS011;16267;48.194;11.546;2024-02-04T12:38:59;1.63;;;0.70;;
29238;SDS011;16267;48.194;11.546;2024-02-04T12:41:27;2.50;;;0.80;;
29238;SDS011;16267;48.194;11.546;2024-02-04T12:43:55;4.00;;;0.80;;
29238;SDS011;16267;48.194;11.546;2024-02-04T12:46:33;3.53;;;1.05;;
29238;SDS011;16267;48.194;11.546;2024-02-04T12:48:59;3.63;;;0.73;;
29238;SDS011;16267;48.194;11.546;2024-02-04T12:51:29;1.75;;;0.60;;
29238;SDS011;16267;48.194;11.546;2024-02-04T13:02:01;0.80;;;0.50;;
29238;SDS011;16267;48.194;11.546;2024-02-04T13:04:33;1.85;;;0.63;;
29238;SDS011;16267;48.194;11.546;2024-02-04T13:07:00;1.25;;;0.70;;
29238;SDS011;16267;48.194;11.546;2024-02-04T13:09:28;9.48;;;1.20;;
29238;SDS011;16267;48.194;11.546;2024-02-04T13:12:02;3.90;;;0.80;;
29238;SDS011;16267;48.194;11.546;2024-02-04T13:14:41;5.63;;;0.82;;
29238;SDS011;16267;48.194;11.546;2024-02-04T13:17:07;3.42;;;0.65;;
29238;SDS011;16267;48.194;11.546;2024-02-04T13:19:33;4.40;;;0.73;;
29238;SDS011;16267;48.194;11.546;2024-02-04T13:22:09;1.63;;;0.85;;
29238;SDS011;16267;48.194;11.546;2024-02-04T13:24:35;1.45;;;0.75;;
29238;SDS011;16267;48.194;11.546;2024-02-04T13:27:02;3.58;;;1.17;;
29238;SDS011;16267;48.194;11.546;2024-02-04T13:29:29;2.25;;;0.85;;
29238;SDS011;16267;48.194;11.546;2024-02-04T13:31:55;1.27;;;0.70;;
29238;SDS011;16267;48.194;11.546;2024-02-04T13:34:21;1.77;;;1.20;;
29238;SDS011;16267;48.194;11.546;2024-02-04T13:36:47;1.48;;;1.00;;
29238;SDS011;16267;48.194;11.546;2024-02-04T13:39:13;1.48;;;0.77;;
29238;SDS011;16267;48.194;11.546;2024-02-04T13:41:39;3.50;;;1.02;;
29238;SDS011;16267;48.194;11.546;2024-02-04T13:44:05;2.08;;;0.88;;
29238;SDS011;16267;48.194;11.546;2024-02-04T13:46:32;1.80;;;0.82;;
29238;SDS011;16267;48.194;11.546;2024-02-04T13:48:58;1.33;;;0.98;;
29238;SDS011;16267;48.194;11.546;2024-02-04T13:51:24;2.40;;;1.10;;
29238;SDS011;16267;48.194;11.546;2024-02-04T13:53:49;5.68;;;1.20;;
29238;SDS011;16267;48.194;11.546;2024-02-04T13:56:15;4.22;;;1.40;;
29238;SDS011;16267;48.194;11.546;2024-02-04T13:58:44;1.20;;;0.70;;
29238;SDS011;16267;48.194;11.546;2024-02-04T14:01:13;3.95;;;0.82;;
29238;SDS011;16267;48.194;11.546;2024-02-04T14:03:40;3.45;;;1.30;;
29238;SDS011;16267;48.194;11.546;2024-02-04T14:06:06;5.65;;;1.30;;
29238;SDS011;16267;48.194;11.546;2024-02-04T14:08:32;2.33;;;0.90;;
29238;SDS011;16267;48.194;11.546;2024-02-04T14:11:01;1.52;;;0.85;;
29238;SDS011;16267;48.194;11.546;2024-02-04T14:13:27;1.70;;;0.80;;
29238;SDS011;16267;48.194;11.546;2024-02-04T14:15:53;0.80;;;0.60;;
29238;SDS011;16267;48.194;11.546;2024-02-04T14:18:21;10.93;;;1.40;;
29238;SDS011;16267;48.194;11.546;2024-02-04T14:20:47;1.75;;;0.82;;
29238;SDS011;16267;48.194;11.546;2024-02-04T14:23:12;3.60;;;0.93;;
29238;SDS011;16267;48.194;11.546;2024-02-04T14:25:38;3.45;;;0.90;;
29238;SDS011;16267;48.194;11.546;2024-02-04T14:28:04;1.58;;;1.00;;
29238;SDS011;16267;48.194;11.546;2024-02-04T14:30:30;1.02;;;0.80;;
29238;SDS011;16267;48.194;11.546;2024-02-04T14:32:56;2.08;;;0.80;;
29238;SDS011;16267;48.194;11.546;2024-02-04T14:35:22;3.33;;;1.38;;
29238;SDS011;16267;48.194;11.546;2024-02-04T14:37:48;1.30;;;0.85;;
29238;SDS011;16267;48.194;11.546;2024-02-04T14:40:13;2.25;;;0.63;;
29238;SDS011;16267;48.194;11.546;2024-02-04T14:42:39;3.17;;;0.85;;
29238;SDS011;16267;48.194;11.546;2024-02-04T14:45:05;2.28;;;1.02;;
29238;SDS011;16267;48.194;11.546;2024-02-04T14:47:31;5.25;;;1.15;;
29238;SDS011;16267;48.194;11.546;2024-02-04T14:49:57;2.22;;;0.93;;
29238;SDS011;16267;48.194;11.546;2024-02-04T14:52:23;1.17;;;0.77;;
29238;SDS011;16267;48.194;11.546;2024-02-04T14:54:50;3.53;;;1.02;;
29238;SDS011;16267;48.194;11.546;2024-02-04T14:57:16;1.77;;;0.93;;
29238;SDS011;16267;48.194;11.546;2024-02-04T14:59:42;1.65;;;0.98;;